sensor_id;sensor_type;location;lat;lon;timestamp;P1;durP1;ratioP1;P2;durP2;ratioP2
76852;SDS011;65825;52.232;10.566;2022-12-17T00:02:21;46.38;;;22.58;;
76852;SDS011;65825;52.232;10.566;2022-12-17T00:05:06;41.70;;;20.48;;
76852;SDS011;65825;52.232;10.566;2022-12-17T00:07:57;44.22;;;20.75;;
76852;SDS011;65825;52.232;10.566;2022-12-17T00:10:41;45.55;;;20.63;;
76852;SDS011;65825;52.232;10.566;2022-12-17T00:13:25;42.63;;;21.48;;
76852;SDS011;65825;52.232;10.566;2022-12-17T00:16:09;46.00;;;21.10;;
76852;SDS011;65825;52.232;10.566;2022-12-17T00:18:53;40.97;;;20.27;;
76852;SDS011;65825;52.232;10.566;2022-12-17T00:21:37;43.08;;;20.40;;
76852;SDS011;65825;52.232;10.566;2022-12-17T00:24:22;42.28;;;20.90;;
76852;SDS011;65825;52.232;10.566;2022-12-17T00:27:06;42.10;;;19.67;;
76852;SDS011;65825;52.232;10.566;2022-12-17T00:29:50;38.90;;;17.80;;
76852;SDS011;65825;52.232;10.566;2022-12-17T00:32:34;42.17;;;19.35;;
76852;SDS011;65825;52.232;10.566;2022-12-17T00:35:18;40.30;;;18.88;;
76852;SDS011;65825;52.232;10.566;2022-12-17T00:38:03;41.45;;;20.25;;
76852;SDS011;65825;52.232;10.566;2022-12-17T00:40:49;47.15;;;19.70;;
76852;SDS011;65825;52.232;10.566;2022-12-17T00:43:34;41.15;;;19.65;;
76852;SDS011;65825;52.232;10.566;2022-12-17T00:46:18;40.75;;;19.27;;
76852;SDS011;65825;52.232;10.566;2022-12-17T00:49:02;40.92;;;19.05;;
76852;SDS011;65825;52.232;10.566;2022-12-17T00:51:46;39.10;;;19.65;;
76852;SDS011;65825;52.232;10.566;2022-12-17T00:54:30;36.80;;;18.45;;
76852;SDS011;65825;52.232;10.566;2022-12-17T00:57:14;41.03;;;19.02;;
76852;SDS011;65825;52.232;10.566;2022-12-17T00:59:58;37.40;;;18.67;;
76852;SDS011;65825;52.232;10.566;2022-12-17T01:02:42;43.65;;;20.75;;
76852;SDS011;65825;52.232;10.566;2022-12-17T01:05:26;45.20;;;21.23;;
76852;SDS011;65825;52.232;10.566;2022-12-17T01:08:11;43.85;;;19.77;;
76852;SDS011;65825;52.232;10.566;2022-12-17T01:10:58;46.67;;;20.35;;
76852;SDS011;65825;52.232;10.566;2022-12-17T01:13:45;39.28;;;19.55;;
76852;SDS011;65825;52.232;10.566;2022-12-17T01:16:29;39.92;;;18.20;;
76852;SDS011;65825;52.232;10.566;2022-12-17T01:19:13;38.58;;;18.35;;
76852;SDS011;65825;52.232;10.566;2022-12-17T01:21:57;47.20;;;20.00;;
76852;SDS011;65825;52.232;10.566;2022-12-17T01:24:41;41.90;;;19.05;;
76852;SDS011;65825;52.232;10.566;2022-12-17T01:27:25;38.78;;;18.63;;
76852;SDS011;65825;52.232;10.566;2022-12-17T01:30:09;43.42;;;20.60;;
76852;SDS011;65825;52.232;10.566;2022-12-17T01:32:59;39.05;;;18.98;;
76852;SDS011;65825;52.232;10.566;2022-12-17T01:35:44;40.95;;;19.67;;
76852;SDS011;65825;52.232;10.566;2022-12-17T01:38:28;39.13;;;19.00;;
76852;SDS011;65825;52.232;10.566;2022-12-17T01:41:12;38.97;;;19.30;;
76852;SDS011;65825;52.232;10.566;2022-12-17T01:43:56;45.58;;;18.75;;
76852;SDS011;65825;52.232;10.566;2022-12-17T01:46:42;47.78;;;19.83;;
76852;SDS011;65825;52.232;10.566;2022-12-17T01:49:32;41.25;;;18.60;;
76852;SDS011;65825;52.232;10.566;2022-12-17T01:52:16;42.45;;;20.10;;
76852;SDS011;65825;52.232;10.566;2022-12-17T01:55:03;43.47;;;20.45;;
76852;SDS011;65825;52.232;10.566;2022-12-17T01:57:48;41.55;;;18.92;;
76852;SDS011;65825;52.232;10.566;2022-12-17T02:00:32;42.50;;;19.98;;
76852;SDS011;65825;52.232;10.566;2022-12-17T02:03:17;41.67;;;20.40;;
76852;SDS011;65825;52.232;10.566;2022-12-17T02:08:59;37.38;;;18.98;;
76852;SDS011;65825;52.232;10.566;2022-12-17T02:12:11;37.78;;;18.42;;
76852;SDS011;65825;52.232;10.566;2022-12-17T02:15:11;42.67;;;18.83;;
76852;SDS011;65825;52.232;10.566;2022-12-17T02:18:01;38.53;;;18.88;;
76852;SDS011;65825;52.232;10.566;2022-12-17T02:20:56;38.92;;;18.85;;
76852;SDS011;65825;52.232;10.566;2022-12-17T02:23:47;41.50;;;18.17;;
76852;SDS011;65825;52.232;10.566;2022-12-17T02:26:48;42.40;;;19.70;;
76852;SDS011;65825;52.232;10.566;2022-12-17T02:29:43;42.00;;;20.25;;
76852;SDS011;65825;52.232;10.566;2022-12-17T02:32:31;44.72;;;19.58;;
76852;SDS011;65825;52.232;10.566;2022-12-17T02:35:19;39.92;;;18.90;;
76852;SDS011;65825;52.232;10.566;2022-12-17T02:38:16;44.60;;;19.52;;
76852;SDS011;65825;52.232;10.566;2022-12-17T02:41:01;38.95;;;19.90;;
76852;SDS011;65825;52.232;10.566;2022-12-17T02:43:48;41.83;;;19.67;;
76852;SDS011;65825;52.232;10.566;2022-12-17T02:46:34;39.10;;;19.05;;
76852;SDS011;65825;52.232;10.566;2022-12-17T02:49:18;42.83;;;17.92;;
76852;SDS011;65825;52.232;10.566;2022-12-17T02:52:02;42.75;;;19.58;;
76852;SDS011;65825;52.232;10.566;2022-12-17T02:54:47;43.60;;;19.60;;
76852;SDS011;65825;52.232;10.566;2022-12-17T02:57:30;43.70;;;19.90;;
76852;SDS011;65825;52.232;10.566;2022-12-17T03:00:15;39.58;;;18.85;;
76852;SDS011;65825;52.232;10.566;2022-12-17T03:02:58;42.05;;;19.52;;
76852;SDS011;65825;52.232;10.566;2022-12-17T03:05:42;39.03;;;18.58;;
76852;SDS011;65825;52.232;10.566;2022-12-17T03:08:26;39.97;;;18.10;;
76852;SDS011;65825;52.232;10.566;2022-12-17T03:11:10;41.83;;;18.95;;
76852;SDS011;65825;52.232;10.566;2022-12-17T03:13:54;39.20;;;18.23;;
76852;SDS011;65825;52.232;10.566;2022-12-17T03:16:42;35.88;;;18.45;;
76852;SDS011;65825;52.232;10.566;2022-12-17T03:19:25;40.35;;;19.17;;
76852;SDS011;65825;52.232;10.566;2022-12-17T03:22:09;39.20;;;18.40;;
76852;SDS011;65825;52.232;10.566;2022-12-17T03:24:56;43.50;;;18.58;;
76852;SDS011;65825;52.232;10.566;2022-12-17T03:27:40;38.22;;;17.65;;
76852;SDS011;65825;52.232;10.566;2022-12-17T03:30:24;45.38;;;20.13;;
76852;SDS011;65825;52.232;10.566;2022-12-17T03:33:08;39.15;;;18.95;;
76852;SDS011;65825;52.232;10.566;2022-12-17T03:35:54;46.42;;;19.40;;
76852;SDS011;65825;52.232;10.566;2022-12-17T03:38:38;39.47;;;19.75;;
76852;SDS011;65825;52.232;10.566;2022-12-17T03:41:22;36.65;;;19.05;;
76852;SDS011;65825;52.232;10.566;2022-12-17T03:44:06;37.40;;;18.00;;
76852;SDS011;65825;52.232;10.566;2022-12-17T03:46:50;51.97;;;19.48;;
76852;SDS011;65825;52.232;10.566;2022-12-17T03:49:34;40.28;;;18.83;;
76852;SDS011;65825;52.232;10.566;2022-12-17T03:52:18;38.03;;;18.30;;
76852;SDS011;65825;52.232;10.566;2022-12-17T03:55:02;40.50;;;19.20;;
76852;SDS011;65825;52.232;10.566;2022-12-17T03:57:45;44.67;;;18.98;;
76852;SDS011;65825;52.232;10.566;2022-12-17T04:00:29;39.85;;;19.38;;
76852;SDS011;65825;52.232;10.566;2022-12-17T04:03:13;49.80;;;19.83;;
76852;SDS011;65825;52.232;10.566;2022-12-17T04:05:57;43.03;;;19.30;;
76852;SDS011;65825;52.232;10.566;2022-12-17T04:08:41;41.67;;;19.25;;
76852;SDS011;65825;52.232;10.566;2022-12-17T04:11:25;37.97;;;17.52;;
76852;SDS011;65825;52.232;10.566;2022-12-17T04:14:09;44.15;;;18.73;;
76852;SDS011;65825;52.232;10.566;2022-12-17T04:16:53;41.70;;;19.20;;
76852;SDS011;65825;52.232;10.566;2022-12-17T04:19:37;47.28;;;19.92;;
76852;SDS011;65825;52.232;10.566;2022-12-17T04:22:21;38.90;;;18.60;;
76852;SDS011;65825;52.232;10.566;2022-12-17T04:25:05;39.97;;;19.45;;
76852;SDS011;65825;52.232;10.566;2022-12-17T04:27:49;42.33;;;19.75;;
76852;SDS011;65825;52.232;10.566;2022-12-17T04:30:33;36.40;;;18.15;;
76852;SDS011;65825;52.232;10.566;2022-12-17T04:33:17;47.08;;;19.65;;
76852;SDS011;65825;52.232;10.566;2022-12-17T04:36:00;41.55;;;19.15;;
76852;SDS011;65825;52.232;10.566;2022-12-17T04:38:44;39.25;;;18.20;;
76852;SDS011;65825;52.232;10.566;2022-12-17T04:41:28;39.65;;;19.10;;
76852;SDS011;65825;52.232;10.566;2022-12-17T04:44:12;37.88;;;17.90;;
76852;SDS011;65825;52.232;10.566;2022-12-17T04:46:56;37.53;;;18.77;;
76852;SDS011;65825;52.232;10.566;2022-12-17T04:49:40;37.25;;;18.38;;
76852;SDS011;65825;52.232;10.566;2022-12-17T04:52:24;35.05;;;18.25;;
76852;SDS011;65825;52.232;10.566;2022-12-17T04:55:08;36.00;;;18.48;;
76852;SDS011;65825;52.232;10.566;2022-12-17T04:57:52;35.67;;;17.95;;
76852;SDS011;65825;52.232;10.566;2022-12-17T05:00:36;39.95;;;19.27;;
76852;SDS011;65825;52.232;10.566;2022-12-17T05:03:20;39.25;;;19.05;;
76852;SDS011;65825;52.232;10.566;2022-12-17T05:06:04;36.58;;;18.27;;
76852;SDS011;65825;52.232;10.566;2022-12-17T05:08:48;42.03;;;19.33;;
76852;SDS011;65825;52.232;10.566;2022-12-17T05:11:32;38.60;;;18.40;;
76852;SDS011;65825;52.232;10.566;2022-12-17T05:14:16;43.30;;;19.77;;
76852;SDS011;65825;52.232;10.566;2022-12-17T05:17:00;34.85;;;17.73;;
76852;SDS011;65825;52.232;10.566;2022-12-17T05:19:44;38.22;;;18.13;;
76852;SDS011;65825;52.232;10.566;2022-12-17T05:22:28;38.50;;;18.27;;
76852;SDS011;65825;52.232;10.566;2022-12-17T05:25:12;38.65;;;18.73;;
76852;SDS011;65825;52.232;10.566;2022-12-17T05:27:56;37.88;;;18.55;;
76852;SDS011;65825;52.232;10.566;2022-12-17T05:30:40;35.80;;;17.33;;
76852;SDS011;65825;52.232;10.566;2022-12-17T05:33:24;42.70;;;18.95;;
76852;SDS011;65825;52.232;10.566;2022-12-17T05:36:08;39.60;;;18.67;;
76852;SDS011;65825;52.232;10.566;2022-12-17T05:38:52;39.17;;;17.52;;
76852;SDS011;65825;52.232;10.566;2022-12-17T05:41:36;36.72;;;18.50;;
76852;SDS011;65825;52.232;10.566;2022-12-17T05:44:20;43.20;;;17.73;;
76852;SDS011;65825;52.232;10.566;2022-12-17T05:47:04;41.95;;;19.35;;
76852;SDS011;65825;52.232;10.566;2022-12-17T05:49:49;35.60;;;17.95;;
76852;SDS011;65825;52.232;10.566;2022-12-17T05:52:32;36.20;;;17.80;;
76852;SDS011;65825;52.232;10.566;2022-12-17T05:55:16;39.47;;;18.60;;
76852;SDS011;65825;52.232;10.566;2022-12-17T05:58:01;38.83;;;17.90;;
76852;SDS011;65825;52.232;10.566;2022-12-17T06:00:48;41.90;;;18.58;;
76852;SDS011;65825;52.232;10.566;2022-12-17T06:03:32;37.75;;;18.48;;
76852;SDS011;65825;52.232;10.566;2022-12-17T06:06:17;34.33;;;17.38;;
76852;SDS011;65825;52.232;10.566;2022-12-17T06:09:01;41.45;;;19.77;;
76852;SDS011;65825;52.232;10.566;2022-12-17T06:11:45;36.83;;;17.55;;
76852;SDS011;65825;52.232;10.566;2022-12-17T06:14:29;35.58;;;17.30;;
76852;SDS011;65825;52.232;10.566;2022-12-17T06:17:13;35.78;;;17.52;;
76852;SDS011;65825;52.232;10.566;2022-12-17T06:19:57;41.20;;;18.17;;
76852;SDS011;65825;52.232;10.566;2022-12-17T06:22:41;37.83;;;18.30;;
76852;SDS011;65825;52.232;10.566;2022-12-17T06:25:25;41.63;;;17.35;;
76852;SDS011;65825;52.232;10.566;2022-12-17T06:28:09;41.47;;;20.02;;
76852;SDS011;65825;52.232;10.566;2022-12-17T06:30:53;33.72;;;17.88;;
76852;SDS011;65825;52.232;10.566;2022-12-17T06:33:38;34.85;;;17.35;;
76852;SDS011;65825;52.232;10.566;2022-12-17T06:36:22;37.60;;;17.98;;
76852;SDS011;65825;52.232;10.566;2022-12-17T06:39:06;39.30;;;17.55;;
76852;SDS011;65825;52.232;10.566;2022-12-17T06:41:50;38.78;;;17.70;;
76852;SDS011;65825;52.232;10.566;2022-12-17T06:44:34;35.38;;;16.75;;
76852;SDS011;65825;52.232;10.566;2022-12-17T06:47:18;37.13;;;17.20;;
76852;SDS011;65825;52.232;10.566;2022-12-17T06:50:02;37.70;;;17.35;;
76852;SDS011;65825;52.232;10.566;2022-12-17T06:52:46;37.00;;;17.08;;
76852;SDS011;65825;52.232;10.566;2022-12-17T06:55:30;39.45;;;17.65;;
76852;SDS011;65825;52.232;10.566;2022-12-17T06:58:14;37.60;;;17.92;;
76852;SDS011;65825;52.232;10.566;2022-12-17T07:00:58;40.92;;;19.40;;
76852;SDS011;65825;52.232;10.566;2022-12-17T07:03:42;41.25;;;19.17;;
76852;SDS011;65825;52.232;10.566;2022-12-17T07:06:26;39.83;;;18.75;;
76852;SDS011;65825;52.232;10.566;2022-12-17T07:09:09;38.03;;;18.48;;
76852;SDS011;65825;52.232;10.566;2022-12-17T07:11:53;35.17;;;16.83;;
76852;SDS011;65825;52.232;10.566;2022-12-17T07:14:38;36.35;;;17.65;;
76852;SDS011;65825;52.232;10.566;2022-12-17T07:17:21;35.60;;;17.63;;
76852;SDS011;65825;52.232;10.566;2022-12-17T07:20:05;34.20;;;17.13;;
76852;SDS011;65825;52.232;10.566;2022-12-17T07:22:55;39.80;;;19.27;;
76852;SDS011;65825;52.232;10.566;2022-12-17T07:25:39;37.90;;;17.40;;
76852;SDS011;65825;52.232;10.566;2022-12-17T07:28:26;36.85;;;17.92;;
76852;SDS011;65825;52.232;10.566;2022-12-17T07:31:10;37.13;;;18.40;;
76852;SDS011;65825;52.232;10.566;2022-12-17T07:33:54;40.80;;;18.67;;
76852;SDS011;65825;52.232;10.566;2022-12-17T07:36:38;38.22;;;19.40;;
76852;SDS011;65825;52.232;10.566;2022-12-17T07:39:21;38.70;;;18.33;;
76852;SDS011;65825;52.232;10.566;2022-12-17T07:42:05;42.25;;;19.08;;
76852;SDS011;65825;52.232;10.566;2022-12-17T07:44:49;39.15;;;19.10;;
76852;SDS011;65825;52.232;10.566;2022-12-17T07:47:33;33.08;;;17.38;;
76852;SDS011;65825;52.232;10.566;2022-12-17T07:50:17;43.58;;;18.10;;
76852;SDS011;65825;52.232;10.566;2022-12-17T07:53:02;38.30;;;18.77;;
76852;SDS011;65825;52.232;10.566;2022-12-17T07:55:47;38.95;;;18.98;;
76852;SDS011;65825;52.232;10.566;2022-12-17T07:58:31;41.58;;;19.52;;
76852;SDS011;65825;52.232;10.566;2022-12-17T08:01:15;40.80;;;19.40;;
76852;SDS011;65825;52.232;10.566;2022-12-17T08:03:59;36.08;;;18.67;;
76852;SDS011;65825;52.232;10.566;2022-12-17T08:06:43;41.65;;;18.55;;
76852;SDS011;65825;52.232;10.566;2022-12-17T08:09:26;40.15;;;19.25;;
76852;SDS011;65825;52.232;10.566;2022-12-17T08:12:10;40.60;;;18.45;;
76852;SDS011;65825;52.232;10.566;2022-12-17T08:14:54;35.30;;;18.15;;
76852;SDS011;65825;52.232;10.566;2022-12-17T08:17:38;43.50;;;18.95;;
76852;SDS011;65825;52.232;10.566;2022-12-17T08:20:22;40.80;;;20.40;;
76852;SDS011;65825;52.232;10.566;2022-12-17T08:23:06;45.00;;;19.50;;
76852;SDS011;65825;52.232;10.566;2022-12-17T08:25:50;38.50;;;17.60;;
76852;SDS011;65825;52.232;10.566;2022-12-17T08:28:34;34.28;;;17.27;;
76852;SDS011;65825;52.232;10.566;2022-12-17T08:31:18;38.50;;;16.30;;
76852;SDS011;65825;52.232;10.566;2022-12-17T08:34:02;37.05;;;17.52;;
76852;SDS011;65825;52.232;10.566;2022-12-17T08:36:46;33.33;;;17.10;;
76852;SDS011;65825;52.232;10.566;2022-12-17T08:39:30;39.55;;;18.05;;
76852;SDS011;65825;52.232;10.566;2022-12-17T08:42:14;33.72;;;16.35;;
76852;SDS011;65825;52.232;10.566;2022-12-17T08:44:58;35.38;;;17.05;;
76852;SDS011;65825;52.232;10.566;2022-12-17T08:47:42;31.92;;;16.15;;
76852;SDS011;65825;52.232;10.566;2022-12-17T08:50:25;35.75;;;16.08;;
76852;SDS011;65825;52.232;10.566;2022-12-17T08:53:10;39.90;;;17.08;;
76852;SDS011;65825;52.232;10.566;2022-12-17T08:55:53;51.42;;;23.05;;
76852;SDS011;65825;52.232;10.566;2022-12-17T08:58:37;33.60;;;17.45;;
76852;SDS011;65825;52.232;10.566;2022-12-17T09:01:21;36.92;;;18.05;;
76852;SDS011;65825;52.232;10.566;2022-12-17T09:04:05;38.85;;;17.17;;
76852;SDS011;65825;52.232;10.566;2022-12-17T09:06:49;35.15;;;17.77;;
76852;SDS011;65825;52.232;10.566;2022-12-17T09:09:33;40.30;;;17.70;;
76852;SDS011;65825;52.232;10.566;2022-12-17T09:12:17;32.38;;;16.95;;
76852;SDS011;65825;52.232;10.566;2022-12-17T09:15:01;33.03;;;17.63;;
76852;SDS011;65825;52.232;10.566;2022-12-17T09:17:45;32.70;;;17.13;;
76852;SDS011;65825;52.232;10.566;2022-12-17T09:20:29;34.63;;;17.05;;
76852;SDS011;65825;52.232;10.566;2022-12-17T09:23:16;30.42;;;15.80;;
76852;SDS011;65825;52.232;10.566;2022-12-17T09:26:01;35.72;;;16.50;;
76852;SDS011;65825;52.232;10.566;2022-12-17T09:28:44;32.33;;;17.42;;
76852;SDS011;65825;52.232;10.566;2022-12-17T09:31:29;36.42;;;17.73;;
76852;SDS011;65825;52.232;10.566;2022-12-17T09:34:14;35.92;;;16.77;;
76852;SDS011;65825;52.232;10.566;2022-12-17T09:36:58;39.35;;;16.75;;
76852;SDS011;65825;52.232;10.566;2022-12-17T09:39:42;35.25;;;16.52;;
76852;SDS011;65825;52.232;10.566;2022-12-17T09:42:37;33.05;;;15.65;;
76852;SDS011;65825;52.232;10.566;2022-12-17T09:45:42;33.85;;;14.98;;
76852;SDS011;65825;52.232;10.566;2022-12-17T09:48:39;32.63;;;15.35;;
76852;SDS011;65825;52.232;10.566;2022-12-17T09:51:29;27.58;;;14.70;;
76852;SDS011;65825;52.232;10.566;2022-12-17T09:57:27;26.35;;;13.98;;
76852;SDS011;65825;52.232;10.566;2022-12-17T10:00:20;27.30;;;13.30;;
76852;SDS011;65825;52.232;10.566;2022-12-17T10:05:59;26.25;;;12.63;;
76852;SDS011;65825;52.232;10.566;2022-12-17T10:08:49;22.38;;;12.93;;
76852;SDS011;65825;52.232;10.566;2022-12-17T10:11:38;33.60;;;13.95;;
76852;SDS011;65825;52.232;10.566;2022-12-17T10:17:12;24.15;;;11.98;;
76852;SDS011;65825;52.232;10.566;2022-12-17T10:19:59;24.33;;;11.65;;
76852;SDS011;65825;52.232;10.566;2022-12-17T10:22:44;20.95;;;10.73;;
76852;SDS011;65825;52.232;10.566;2022-12-17T10:25:33;25.45;;;11.32;;
76852;SDS011;65825;52.232;10.566;2022-12-17T10:28:19;22.50;;;12.48;;
76852;SDS011;65825;52.232;10.566;2022-12-17T10:31:15;17.90;;;10.82;;
76852;SDS011;65825;52.232;10.566;2022-12-17T10:34:04;20.30;;;11.15;;
76852;SDS011;65825;52.232;10.566;2022-12-17T10:36:50;24.92;;;11.70;;
76852;SDS011;65825;52.232;10.566;2022-12-17T10:39:35;19.98;;;11.60;;
76852;SDS011;65825;52.232;10.566;2022-12-17T10:48:03;18.98;;;10.13;;
76852;SDS011;65825;52.232;10.566;2022-12-17T10:50:47;21.40;;;12.20;;
76852;SDS011;65825;52.232;10.566;2022-12-17T10:53:42;19.30;;;9.27;;
76852;SDS011;65825;52.232;10.566;2022-12-17T10:56:32;20.45;;;9.73;;
76852;SDS011;65825;52.232;10.566;2022-12-17T10:59:49;15.80;;;9.35;;
76852;SDS011;65825;52.232;10.566;2022-12-17T11:02:27;18.52;;;9.20;;
76852;SDS011;65825;52.232;10.566;2022-12-17T11:05:13;16.13;;;8.45;;
76852;SDS011;65825;52.232;10.566;2022-12-17T11:08:11;18.52;;;9.10;;
76852;SDS011;65825;52.232;10.566;2022-12-17T11:10:58;17.13;;;9.82;;
76852;SDS011;65825;52.232;10.566;2022-12-17T11:13:48;16.73;;;10.07;;
76852;SDS011;65825;52.232;10.566;2022-12-17T11:16:47;20.10;;;10.15;;
76852;SDS011;65825;52.232;10.566;2022-12-17T11:19:36;19.20;;;10.68;;
76852;SDS011;65825;52.232;10.566;2022-12-17T11:28:28;15.05;;;7.78;;
76852;SDS011;65825;52.232;10.566;2022-12-17T11:34:03;14.85;;;7.38;;
76852;SDS011;65825;52.232;10.566;2022-12-17T11:40:19;14.32;;;7.07;;
76852;SDS011;65825;52.232;10.566;2022-12-17T11:52:36;18.90;;;8.73;;
76852;SDS011;65825;52.232;10.566;2022-12-17T12:01:23;11.63;;;5.93;;
76852;SDS011;65825;52.232;10.566;2022-12-17T12:07:24;17.58;;;8.98;;
76852;SDS011;65825;52.232;10.566;2022-12-17T12:10:35;57.78;;;19.02;;
76852;SDS011;65825;52.232;10.566;2022-12-17T12:13:31;40.97;;;18.60;;
76852;SDS011;65825;52.232;10.566;2022-12-17T12:16:24;13.20;;;6.93;;
76852;SDS011;65825;52.232;10.566;2022-12-17T12:19:21;22.58;;;9.02;;
76852;SDS011;65825;52.232;10.566;2022-12-17T12:22:25;13.70;;;6.20;;
76852;SDS011;65825;52.232;10.566;2022-12-17T12:25:52;11.40;;;6.07;;
76852;SDS011;65825;52.232;10.566;2022-12-17T12:29:02;14.70;;;6.97;;
76852;SDS011;65825;52.232;10.566;2022-12-17T12:35:03;13.35;;;9.18;;
76852;SDS011;65825;52.232;10.566;2022-12-17T12:37:54;13.90;;;6.68;;
76852;SDS011;65825;52.232;10.566;2022-12-17T12:43:39;13.43;;;6.30;;
76852;SDS011;65825;52.232;10.566;2022-12-17T12:46:37;15.20;;;6.78;;
76852;SDS011;65825;52.232;10.566;2022-12-17T12:49:34;10.20;;;5.25;;
76852;SDS011;65825;52.232;10.566;2022-12-17T12:52:25;12.90;;;5.68;;
76852;SDS011;65825;52.232;10.566;2022-12-17T12:55:11;17.92;;;9.63;;
76852;SDS011;65825;52.232;10.566;2022-12-17T13:03:30;13.18;;;6.38;;
76852;SDS011;65825;52.232;10.566;2022-12-17T13:11:54;14.00;;;5.63;;
76852;SDS011;65825;52.232;10.566;2022-12-17T13:14:22;56.97;;;17.27;;
76852;SDS011;65825;52.232;10.566;2022-12-17T13:16:54;19.75;;;8.27;;
76852;SDS011;65825;52.232;10.566;2022-12-17T13:21:55;9.80;;;5.28;;
76852;SDS011;65825;52.232;10.566;2022-12-17T13:24:39;10.88;;;6.03;;
76852;SDS011;65825;52.232;10.566;2022-12-17T13:27:26;12.25;;;6.30;;
76852;SDS011;65825;52.232;10.566;2022-12-17T13:29:54;11.05;;;5.60;;
76852;SDS011;65825;52.232;10.566;2022-12-17T13:32:39;9.05;;;5.80;;
76852;SDS011;65825;52.232;10.566;2022-12-17T13:35:46;9.73;;;5.72;;
76852;SDS011;65825;52.232;10.566;2022-12-17T13:38:26;11.75;;;5.75;;
76852;SDS011;65825;52.232;10.566;2022-12-17T13:41:05;10.82;;;5.60;;
76852;SDS011;65825;52.232;10.566;2022-12-17T13:43:37;11.00;;;6.22;;
76852;SDS011;65825;52.232;10.566;2022-12-17T13:46:18;10.18;;;6.05;;
76852;SDS011;65825;52.232;10.566;2022-12-17T13:51:25;10.40;;;6.38;;
76852;SDS011;65825;52.232;10.566;2022-12-17T13:53:55;13.07;;;6.88;;
76852;SDS011;65825;52.232;10.566;2022-12-17T13:56:35;12.73;;;7.93;;
76852;SDS011;65825;52.232;10.566;2022-12-17T13:59:02;12.52;;;7.20;;
76852;SDS011;65825;52.232;10.566;2022-12-17T14:01:29;13.40;;;8.05;;
76852;SDS011;65825;52.232;10.566;2022-12-17T14:03:57;13.95;;;8.43;;
76852;SDS011;65825;52.232;10.566;2022-12-17T14:06:25;14.82;;;8.63;;
76852;SDS011;65825;52.232;10.566;2022-12-17T14:08:57;17.58;;;10.68;;
76852;SDS011;65825;52.232;10.566;2022-12-17T14:11:23;18.85;;;10.43;;
76852;SDS011;65825;52.232;10.566;2022-12-17T14:16:43;21.45;;;10.70;;
76852;SDS011;65825;52.232;10.566;2022-12-17T14:19:09;21.17;;;11.00;;
76852;SDS011;65825;52.232;10.566;2022-12-17T14:21:36;20.77;;;10.40;;
76852;SDS011;65825;52.232;10.566;2022-12-17T14:24:03;15.13;;;8.68;;
76852;SDS011;65825;52.232;10.566;2022-12-17T14:26:28;12.35;;;7.88;;
76852;SDS011;65825;52.232;10.566;2022-12-17T14:28:54;14.23;;;7.63;;
76852;SDS011;65825;52.232;10.566;2022-12-17T14:31:24;12.85;;;7.47;;
76852;SDS011;65825;52.232;10.566;2022-12-17T14:34:01;12.73;;;7.63;;
76852;SDS011;65825;52.232;10.566;2022-12-17T14:36:36;17.52;;;8.50;;
76852;SDS011;65825;52.232;10.566;2022-12-17T14:39:05;15.57;;;8.50;;
76852;SDS011;65825;52.232;10.566;2022-12-17T14:41:40;15.13;;;8.23;;
76852;SDS011;65825;52.232;10.566;2022-12-17T14:44:25;18.05;;;8.65;;
76852;SDS011;65825;52.232;10.566;2022-12-17T14:47:06;17.55;;;8.27;;
76852;SDS011;65825;52.232;10.566;2022-12-17T14:49:37;14.75;;;8.23;;
76852;SDS011;65825;52.232;10.566;2022-12-17T14:55:23;14.43;;;7.78;;
76852;SDS011;65825;52.232;10.566;2022-12-17T15:00:37;16.42;;;8.52;;
76852;SDS011;65825;52.232;10.566;2022-12-17T15:03:30;20.17;;;8.43;;
76852;SDS011;65825;52.232;10.566;2022-12-17T15:06:00;15.48;;;9.10;;
76852;SDS011;65825;52.232;10.566;2022-12-17T15:08:28;17.20;;;8.85;;
76852;SDS011;65825;52.232;10.566;2022-12-17T15:10:57;19.23;;;9.30;;
76852;SDS011;65825;52.232;10.566;2022-12-17T15:13:22;18.92;;;9.20;;
76852;SDS011;65825;52.232;10.566;2022-12-17T15:15:47;16.10;;;8.37;;
76852;SDS011;65825;52.232;10.566;2022-12-17T15:18:13;20.73;;;8.27;;
76852;SDS011;65825;52.232;10.566;2022-12-17T15:20:38;19.98;;;9.40;;
76852;SDS011;65825;52.232;10.566;2022-12-17T15:23:03;21.38;;;9.00;;
76852;SDS011;65825;52.232;10.566;2022-12-17T15:25:29;15.37;;;8.87;;
76852;SDS011;65825;52.232;10.566;2022-12-17T15:27:54;19.73;;;10.90;;
76852;SDS011;65825;52.232;10.566;2022-12-17T15:30:19;22.52;;;11.68;;
76852;SDS011;65825;52.232;10.566;2022-12-17T15:32:45;22.08;;;11.07;;
76852;SDS011;65825;52.232;10.566;2022-12-17T15:35:11;19.17;;;10.93;;
76852;SDS011;65825;52.232;10.566;2022-12-17T15:37:37;21.40;;;10.77;;
76852;SDS011;65825;52.232;10.566;2022-12-17T15:40:03;20.63;;;10.68;;
76852;SDS011;65825;52.232;10.566;2022-12-17T15:42:29;21.10;;;11.45;;
76852;SDS011;65825;52.232;10.566;2022-12-17T15:45:13;22.98;;;12.63;;
76852;SDS011;65825;52.232;10.566;2022-12-17T15:47:39;22.95;;;11.93;;
76852;SDS011;65825;52.232;10.566;2022-12-17T15:50:04;27.30;;;11.30;;
76852;SDS011;65825;52.232;10.566;2022-12-17T15:52:30;18.52;;;10.48;;
76852;SDS011;65825;52.232;10.566;2022-12-17T15:54:55;20.83;;;10.20;;
76852;SDS011;65825;52.232;10.566;2022-12-17T15:57:20;20.17;;;11.20;;
76852;SDS011;65825;52.232;10.566;2022-12-17T15:59:46;19.48;;;10.73;;
76852;SDS011;65825;52.232;10.566;2022-12-17T16:02:11;24.42;;;10.35;;
76852;SDS011;65825;52.232;10.566;2022-12-17T16:04:36;20.23;;;10.45;;
76852;SDS011;65825;52.232;10.566;2022-12-17T16:07:02;18.10;;;9.73;;
76852;SDS011;65825;52.232;10.566;2022-12-17T16:09:29;21.27;;;11.00;;
76852;SDS011;65825;52.232;10.566;2022-12-17T16:11:54;19.35;;;11.00;;
76852;SDS011;65825;52.232;10.566;2022-12-17T16:14:21;19.80;;;10.75;;
76852;SDS011;65825;52.232;10.566;2022-12-17T16:16:47;21.63;;;11.15;;
76852;SDS011;65825;52.232;10.566;2022-12-17T16:19:13;21.52;;;10.68;;
76852;SDS011;65825;52.232;10.566;2022-12-17T16:21:38;65.40;;;30.50;;
76852;SDS011;65825;52.232;10.566;2022-12-17T16:24:06;26.75;;;14.13;;
76852;SDS011;65825;52.232;10.566;2022-12-17T16:26:32;29.23;;;14.55;;
76852;SDS011;65825;52.232;10.566;2022-12-17T16:28:57;30.70;;;13.47;;
76852;SDS011;65825;52.232;10.566;2022-12-17T16:31:23;32.42;;;15.00;;
76852;SDS011;65825;52.232;10.566;2022-12-17T16:33:48;30.50;;;15.32;;
76852;SDS011;65825;52.232;10.566;2022-12-17T16:36:15;28.60;;;14.00;;
76852;SDS011;65825;52.232;10.566;2022-12-17T16:38:43;29.63;;;15.75;;
76852;SDS011;65825;52.232;10.566;2022-12-17T16:41:09;29.25;;;14.95;;
76852;SDS011;65825;52.232;10.566;2022-12-17T16:43:36;31.27;;;15.00;;
76852;SDS011;65825;52.232;10.566;2022-12-17T16:46:01;27.55;;;14.88;;
76852;SDS011;65825;52.232;10.566;2022-12-17T16:48:29;31.00;;;14.18;;
76852;SDS011;65825;52.232;10.566;2022-12-17T16:51:13;32.35;;;15.18;;
76852;SDS011;65825;52.232;10.566;2022-12-17T16:53:43;34.33;;;16.13;;
76852;SDS011;65825;52.232;10.566;2022-12-17T16:56:13;35.90;;;16.55;;
76852;SDS011;65825;52.232;10.566;2022-12-17T16:58:40;33.20;;;16.23;;